Homer, Nebraska
Current Conditions -  °F | °C
As of 11:52 PM on Wednesday 26 Nov 2014 (Local Time) from KSUX Reporting Station
Overcast Overcast  
Wind Chill:   Ceiling: 7000
Heat Index: 17°   Visibility: 10mi
Dew Point: 11°   Wind: 14mph
Humidity: 77%   Direction: 340°NNW
Pressure: 30.49"   Gusts: NA
Location:  42.32°N, 96.49°W
Report Text: KSUX 270552Z 34012KT 10SM OVC070 M08/M12 A3049 RMK AO2 SLP342 T10831117 11056 21083 400281083 53019
Loading
Personal Weather Stations






























Interactive Weather Map New forecast layout! Learn more

10-Day Weather Forecast

Advertisements
Track Severe Weather on mobile